createdAt,value
2022-12-08T00:03:44.740Z,103492.31
2022-12-08T00:09:05.837Z,103492.72
2022-12-08T00:14:08.333Z,103498.03
2022-12-08T00:19:10.764Z,103493.72
2022-12-08T00:24:13.452Z,103501.56
2022-12-08T00:29:17.519Z,103503.13
2022-12-08T00:34:20.640Z,103492.75
2022-12-08T00:39:23.191Z,103501.91
2022-12-08T00:44:26.350Z,103489.38
2022-12-08T00:49:28.892Z,103497.59
2022-12-08T00:54:31.530Z,103492.50
2022-12-08T00:59:34.129Z,103495.66
2022-12-08T01:04:36.770Z,103502.25
2022-12-08T01:09:39.082Z,103496.81
2022-12-08T01:14:41.736Z,103504.75
2022-12-08T01:19:46.453Z,103505.56
2022-12-08T01:24:48.910Z,103497.09
2022-12-08T01:29:51.897Z,103504.22
2022-12-08T01:34:54.347Z,103495.06
2022-12-08T01:39:56.863Z,103507.84
2022-12-08T01:45:03.099Z,103517.41
2022-12-08T01:50:09.078Z,103517.13
2022-12-08T01:55:20.919Z,103522.94
2022-12-08T02:00:24.247Z,103527.63
2022-12-08T02:05:33.588Z,103515.66
2022-12-08T02:10:40.039Z,103537.16
2022-12-08T02:16:02.286Z,103540.22
2022-12-08T02:21:14.297Z,103542.69
2022-12-08T02:26:44.502Z,103538.13
2022-12-08T02:32:22.094Z,103548.06
2022-12-08T02:37:32.375Z,103545.59
2022-12-08T02:43:02.610Z,103549.81
2022-12-08T02:48:06.136Z,103545.59
2022-12-08T02:58:36.480Z,103537.84
2022-12-08T03:04:11.138Z,103526.59
2022-12-08T03:09:40.187Z,103538.09
2022-12-08T03:14:47.762Z,103538.94
2022-12-08T03:19:50.526Z,103532.41
2022-12-08T03:24:53.946Z,103527.16
2022-12-08T03:29:58.895Z,103534.13
2022-12-08T03:35:04.666Z,103535.97
2022-12-08T03:40:09.603Z,103543.72
2022-12-08T03:45:12.439Z,103530.41
2022-12-08T03:50:14.934Z,103553.53
2022-12-08T03:55:17.305Z,103557.53
2022-12-08T04:00:19.936Z,103543.88
2022-12-08T04:05:22.465Z,103544.84
2022-12-08T04:10:24.780Z,103556.66
2022-12-08T04:15:27.215Z,103548.94
2022-12-08T04:20:29.507Z,103553.56
2022-12-08T04:25:32.059Z,103555.22
2022-12-08T04:30:34.447Z,103550.94
2022-12-08T04:35:37.203Z,103561.75
2022-12-08T04:40:39.978Z,103563.22
2022-12-08T04:45:43.123Z,103573.44
2022-12-08T04:50:46.297Z,103558.50
2022-12-08T04:55:49.950Z,103576.41
2022-12-08T05:00:52.547Z,103561.03
2022-12-08T05:05:59.556Z,103563.84
2022-12-08T05:11:06.687Z,103581.66
2022-12-08T05:16:12.564Z,103568.59
2022-12-08T05:21:15.258Z,103587.63
2022-12-08T05:26:17.841Z,103572.53
2022-12-08T05:31:20.629Z,103564.28
2022-12-08T05:36:23.182Z,103564.75
2022-12-08T05:41:25.849Z,103575.41
2022-12-08T05:46:28.853Z,103544.81
2022-12-08T05:51:31.900Z,103575.88
2022-12-08T05:56:37.604Z,103580.38
2022-12-08T06:01:40.201Z,103585.91
2022-12-08T06:06:42.677Z,103580.59
2022-12-08T06:11:46.781Z,103574.19
2022-12-08T06:16:49.264Z,103585.06
2022-12-08T06:21:51.744Z,103577.28
2022-12-08T06:26:54.269Z,103599.16
2022-12-08T06:31:57.102Z,103595.59
2022-12-08T06:36:59.823Z,103587.91
2022-12-08T06:42:20.788Z,103587.09
2022-12-08T06:47:26.209Z,103594.16
2022-12-08T06:52:28.958Z,103590.63
2022-12-08T06:57:31.455Z,103584.91
2022-12-08T07:02:34.030Z,103582.09
2022-12-08T07:07:36.636Z,103595.66
2022-12-08T07:12:39.172Z,103602.06
2022-12-08T07:17:41.707Z,103595.53
2022-12-08T07:22:54.311Z,103595.19
2022-12-08T07:27:56.865Z,103588.50
2022-12-08T07:32:59.350Z,103598.28
2022-12-08T07:38:01.824Z,103599.78
2022-12-08T07:43:04.281Z,103601.72
2022-12-08T07:48:07.334Z,103587.47
2022-12-08T07:53:09.850Z,103586.63
2022-12-08T07:58:12.547Z,103565.34
2022-12-08T08:03:15.210Z,103571.16
2022-12-08T08:08:18.540Z,103559.63
2022-12-08T08:13:21.165Z,103554.19
2022-12-08T08:18:23.673Z,103555.72
2022-12-08T08:23:26.259Z,103546.97
2022-12-08T08:28:29.364Z,103540.25
2022-12-08T08:33:32.449Z,103529.69
2022-12-08T08:38:36.542Z,103520.22
2022-12-08T08:43:39.552Z,103520.97
2022-12-08T08:48:42.692Z,103514.09
2022-12-08T08:53:45.210Z,103506.25
2022-12-08T08:58:49.660Z,103500.75
2022-12-08T09:03:53.263Z,103507.84
2022-12-08T09:08:55.816Z,103504.31
2022-12-08T09:13:58.282Z,103502.00
2022-12-08T09:19:00.805Z,103493.44
2022-12-08T09:24:03.387Z,103491.56
2022-12-08T09:29:05.914Z,103479.53
2022-12-08T09:34:08.494Z,103474.03
2022-12-08T09:39:10.964Z,103470.81
2022-12-08T09:44:39.607Z,103464.00
2022-12-08T09:49:55.465Z,103458.31
2022-12-08T09:55:01.779Z,103468.88
2022-12-08T10:00:07.101Z,103460.28
2022-12-08T10:05:14.740Z,103453.19
2022-12-08T10:10:26.074Z,103458.09
2022-12-08T10:15:59.489Z,103458.38
2022-12-08T10:21:19.185Z,103443.38
2022-12-08T10:26:23.052Z,103432.50
2022-12-08T10:31:25.868Z,103423.50
2022-12-08T10:36:58.678Z,103430.69
2022-12-08T10:42:16.004Z,103426.97
2022-12-08T10:47:22.188Z,103414.81
2022-12-08T10:52:25.426Z,103416.66
2022-12-08T10:57:27.999Z,103425.28
2022-12-08T11:02:30.603Z,103426.31
2022-12-08T11:07:53.173Z,103420.50
2022-12-08T11:12:58.275Z,103403.09
2022-12-08T11:18:06.956Z,103387.78
2022-12-08T11:23:24.935Z,103389.75
2022-12-08T11:28:29.045Z,103393.03
2022-12-08T11:33:31.948Z,103393.97
2022-12-08T11:38:41.206Z,103393.81
2022-12-08T11:44:17.519Z,103390.88
2022-12-08T11:49:20.999Z,103392.34
2022-12-08T11:54:39.049Z,103404.50
2022-12-08T11:59:46.507Z,103422.09
2022-12-08T12:04:58.461Z,103425.53
2022-12-08T12:10:01.064Z,103418.19
2022-12-08T12:15:18.757Z,103411.88
2022-12-08T12:20:39.112Z,103410.28
2022-12-08T12:25:48.625Z,103412.31
2022-12-08T12:31:01.378Z,103424.00
2022-12-08T12:36:07.307Z,103413.44
2022-12-08T12:41:12.299Z,103425.59
2022-12-08T12:46:41.339Z,103421.50
2022-12-08T12:51:48.093Z,103442.41
2022-12-08T12:56:54.736Z,103438.72
2022-12-08T13:02:15.800Z,103433.59
2022-12-08T13:07:24.050Z,103426.84
2022-12-08T13:12:28.505Z,103431.72
2022-12-08T13:17:34.092Z,103440.13
2022-12-08T13:23:12.340Z,103452.91
2022-12-08T13:28:31.491Z,103446.13
2022-12-08T13:33:41.582Z,103446.81
2022-12-08T13:38:47.607Z,103450.28
2022-12-08T13:56:05.465Z,103448.19
2022-12-08T14:00:18.413Z,103450.78
2022-12-08T14:05:35.245Z,103452.28
2022-12-08T14:10:53.503Z,103446.34
2022-12-08T14:15:56.096Z,103432.53
2022-12-08T14:21:20.647Z,103444.91
2022-12-08T14:26:23.564Z,103444.75
2022-12-08T14:31:27.663Z,103447.47
2022-12-08T14:36:30.506Z,103455.06
2022-12-08T14:41:33.673Z,103451.50
2022-12-08T14:47:09.268Z,103467.53
2022-12-08T14:52:12.743Z,103474.41
2022-12-08T14:57:15.909Z,103463.13
2022-12-08T15:02:27.393Z,103476.94
2022-12-08T15:07:35.635Z,103483.94
2022-12-08T15:12:38.231Z,103480.44
2022-12-08T15:17:40.650Z,103484.59
2022-12-08T15:22:43.367Z,103480.22
2022-12-08T15:27:50.419Z,103487.03
2022-12-08T15:33:00.635Z,103488.78
2022-12-08T15:38:03.182Z,103498.72
2022-12-08T15:43:05.691Z,103498.91
2022-12-08T15:48:13.914Z,103507.47
2022-12-08T15:53:16.753Z,103522.75
2022-12-08T16:09:14.717Z,103493.13
2022-12-08T16:15:23.019Z,103485.50
2022-12-08T16:19:39.789Z,103468.97
2022-12-08T16:24:42.290Z,103459.44
2022-12-08T16:29:48.489Z,103438.88
2022-12-08T16:34:51.446Z,103440.88
2022-12-08T16:39:55.940Z,103433.84
2022-12-08T16:44:58.919Z,103430.28
2022-12-08T16:50:03.933Z,103434.72
2022-12-08T16:55:19.558Z,103438.38
2022-12-08T17:00:24.740Z,103432.53
2022-12-08T17:05:27.765Z,103435.28
2022-12-08T17:10:34.635Z,103431.00
2022-12-08T17:15:37.131Z,103421.50
2022-12-08T17:20:40.693Z,103449.03
2022-12-08T17:25:43.173Z,103458.72
2022-12-08T17:30:45.628Z,103451.91
2022-12-08T17:35:53.085Z,103451.56
2022-12-08T17:40:58.624Z,103470.44
2022-12-08T17:46:01.747Z,103465.44
2022-12-08T17:51:09.098Z,103476.69
2022-12-08T17:56:21.491Z,103478.66
2022-12-08T18:01:24.443Z,103461.72
2022-12-08T18:06:31.081Z,103455.72
2022-12-08T18:11:35.766Z,103473.97
2022-12-08T18:16:40.568Z,103461.84
2022-12-08T18:21:43.813Z,103463.03
2022-12-08T18:26:46.604Z,103463.09
2022-12-08T18:31:50.105Z,103446.88
2022-12-08T18:36:53.090Z,103458.25
2022-12-08T18:41:57.839Z,103450.53
2022-12-08T18:47:00.573Z,103462.66
2022-12-08T18:52:03.113Z,103448.09
2022-12-08T18:57:06.375Z,103463.72
2022-12-08T19:02:10.553Z,103473.22
2022-12-08T19:07:13.848Z,103463.56
2022-12-08T19:12:16.481Z,103472.13
2022-12-08T19:17:26.171Z,103466.88
2022-12-08T19:22:28.789Z,103476.69
2022-12-08T19:27:47.884Z,103472.28
2022-12-08T19:32:51.163Z,103466.63
2022-12-08T19:37:55.079Z,103474.53
2022-12-08T19:43:16.451Z,103464.22
2022-12-08T19:48:18.947Z,103461.59
2022-12-08T19:53:21.451Z,103462.69
2022-12-08T19:58:24.013Z,103461.66
2022-12-08T20:03:26.674Z,103462.88
2022-12-08T20:08:29.320Z,103466.41
2022-12-08T20:13:52.161Z,103468.28
2022-12-08T20:18:54.798Z,103465.16
2022-12-08T20:23:57.320Z,103456.41
2022-12-08T20:28:59.843Z,103448.28
2022-12-08T20:34:02.503Z,103450.34
2022-12-08T20:39:05.054Z,103456.28
2022-12-08T20:44:07.999Z,103464.75
2022-12-08T20:49:10.560Z,103461.25
2022-12-08T20:54:13.300Z,103463.28
2022-12-08T20:59:18.298Z,103462.03
2022-12-08T21:04:21.955Z,103461.69
2022-12-08T21:09:24.762Z,103466.44
2022-12-08T21:14:27.619Z,103454.47
2022-12-08T21:19:30.391Z,103450.06
2022-12-08T21:24:34.765Z,103442.59
2022-12-08T21:29:37.422Z,103457.78
2022-12-08T21:34:40.077Z,103455.72
2022-12-08T21:39:57.542Z,103454.25
2022-12-08T21:45:00.186Z,103440.34
2022-12-08T21:50:03.129Z,103423.78
2022-12-08T21:55:07.136Z,103429.44
2022-12-08T22:00:13.707Z,103436.47
2022-12-08T22:05:16.420Z,103430.88
2022-12-08T22:10:21.195Z,103446.00
2022-12-08T22:15:23.692Z,103442.41
2022-12-08T22:20:26.340Z,103445.56
2022-12-08T22:25:28.848Z,103438.84
2022-12-08T22:30:37.205Z,103439.28
2022-12-08T22:35:41.402Z,103440.75
2022-12-08T22:40:44.030Z,103432.22
2022-12-08T22:45:46.972Z,103415.75
2022-12-08T22:50:49.660Z,103427.94
2022-12-08T22:55:52.304Z,103444.53
2022-12-08T23:00:55.013Z,103439.06
2022-12-08T23:05:58.060Z,103446.00
2022-12-08T23:11:00.664Z,103455.69
2022-12-08T23:16:03.229Z,103448.88
2022-12-08T23:21:07.853Z,103452.94
2022-12-08T23:26:27.931Z,103455.06
2022-12-08T23:31:31.177Z,103468.97
2022-12-08T23:36:33.907Z,103453.31
2022-12-08T23:41:36.470Z,103462.34
2022-12-08T23:46:39.242Z,103475.81
2022-12-08T23:51:41.933Z,103461.09
2022-12-08T23:56:44.579Z,103461.50
